sensor_id;sensor_type;location;lat;lon;timestamp;temperature;humidity
69324;DHT22;56470;47.350;8.718;2024-01-16T00:01:03;2.41;65.23
69324;DHT22;56470;47.350;8.718;2024-01-16T00:03:28;2.41;65.36
69324;DHT22;56470;47.350;8.718;2024-01-16T00:05:54;2.40;65.16
69324;DHT22;56470;47.350;8.718;2024-01-16T00:08:19;2.40;64.94
69324;DHT22;56470;47.350;8.718;2024-01-16T00:10:44;2.38;64.66
69324;DHT22;56470;47.350;8.718;2024-01-16T00:13:10;2.37;64.83
69324;DHT22;56470;47.350;8.718;2024-01-16T00:15:35;2.40;64.75
69324;DHT22;56470;47.350;8.718;2024-01-16T00:18:00;2.40;64.87
69324;DHT22;56470;47.350;8.718;2024-01-16T00:20:25;2.38;64.60
69324;DHT22;56470;47.350;8.718;2024-01-16T00:22:51;2.37;64.81
69324;DHT22;56470;47.350;8.718;2024-01-16T00:25:17;2.34;64.27
69324;DHT22;56470;47.350;8.718;2024-01-16T00:27:45;2.33;64.65
69324;DHT22;56470;47.350;8.718;2024-01-16T00:30:10;2.31;64.14
69324;DHT22;56470;47.350;8.718;2024-01-16T00:32:36;2.28;64.09
69324;DHT22;56470;47.350;8.718;2024-01-16T00:35:01;2.31;64.15
69324;DHT22;56470;47.350;8.718;2024-01-16T00:37:27;2.27;64.12
69324;DHT22;56470;47.350;8.718;2024-01-16T00:39:52;2.30;64.19
69324;DHT22;56470;47.350;8.718;2024-01-16T00:42:17;2.30;64.07
69324;DHT22;56470;47.350;8.718;2024-01-16T00:44:43;2.27;64.15
69324;DHT22;56470;47.350;8.718;2024-01-16T00:47:08;2.27;64.19
69324;DHT22;56470;47.350;8.718;2024-01-16T00:49:35;2.27;64.42
69324;DHT22;56470;47.350;8.718;2024-01-16T00:52:00;2.26;64.40
69324;DHT22;56470;47.350;8.718;2024-01-16T00:54:25;2.23;63.90
69324;DHT22;56470;47.350;8.718;2024-01-16T00:56:51;2.26;63.92
69324;DHT22;56470;47.350;8.718;2024-01-16T00:59:20;2.28;64.07
69324;DHT22;56470;47.350;8.718;2024-01-16T01:01:45;2.27;63.92
69324;DHT22;56470;47.350;8.718;2024-01-16T01:04:11;2.23;64.18
69324;DHT22;56470;47.350;8.718;2024-01-16T01:06:36;2.27;64.26
69324;DHT22;56470;47.350;8.718;2024-01-16T01:09:02;2.27;64.10
69324;DHT22;56470;47.350;8.718;2024-01-16T01:11:28;2.28;64.17
69324;DHT22;56470;47.350;8.718;2024-01-16T01:13:53;2.31;64.47
69324;DHT22;56470;47.350;8.718;2024-01-16T01:16:19;2.27;63.82
69324;DHT22;56470;47.350;8.718;2024-01-16T01:18:44;2.27;64.08
69324;DHT22;56470;47.350;8.718;2024-01-16T01:21:09;2.26;63.67
69324;DHT22;56470;47.350;8.718;2024-01-16T01:23:35;2.24;63.53
69324;DHT22;56470;47.350;8.718;2024-01-16T01:26:00;2.23;63.25
69324;DHT22;56470;47.350;8.718;2024-01-16T01:28:25;2.20;63.11
69324;DHT22;56470;47.350;8.718;2024-01-16T01:30:51;2.19;63.34
69324;DHT22;56470;47.350;8.718;2024-01-16T01:33:16;2.20;63.41
69324;DHT22;56470;47.350;8.718;2024-01-16T01:35:42;2.14;62.78
69324;DHT22;56470;47.350;8.718;2024-01-16T01:38:07;2.14;62.62
69324;DHT22;56470;47.350;8.718;2024-01-16T01:40:33;2.14;62.72
69324;DHT22;56470;47.350;8.718;2024-01-16T01:45:48;2.16;63.10
69324;DHT22;56470;47.350;8.718;2024-01-16T01:48:16;2.13;62.11
69324;DHT22;56470;47.350;8.718;2024-01-16T01:50:42;2.14;62.82
69324;DHT22;56470;47.350;8.718;2024-01-16T01:53:07;2.16;62.93
69324;DHT22;56470;47.350;8.718;2024-01-16T01:55:34;2.13;62.97
69324;DHT22;56470;47.350;8.718;2024-01-16T01:58:00;2.14;62.75
69324;DHT22;56470;47.350;8.718;2024-01-16T02:00:27;2.14;62.40
69324;DHT22;56470;47.350;8.718;2024-01-16T02:02:52;2.14;62.77
69324;DHT22;56470;47.350;8.718;2024-01-16T02:05:18;2.10;62.15
69324;DHT22;56470;47.350;8.718;2024-01-16T02:07:44;2.10;62.28
69324;DHT22;56470;47.350;8.718;2024-01-16T02:10:10;2.10;62.08
69324;DHT22;56470;47.350;8.718;2024-01-16T02:12:35;2.09;62.17
69324;DHT22;56470;47.350;8.718;2024-01-16T02:15:01;2.11;62.37
69324;DHT22;56470;47.350;8.718;2024-01-16T02:17:26;2.14;62.28
69324;DHT22;56470;47.350;8.718;2024-01-16T02:19:51;2.13;62.45
69324;DHT22;56470;47.350;8.718;2024-01-16T02:22:20;2.10;62.31
69324;DHT22;56470;47.350;8.718;2024-01-16T02:24:49;2.07;62.48
69324;DHT22;56470;47.350;8.718;2024-01-16T02:27:14;2.07;62.22
69324;DHT22;56470;47.350;8.718;2024-01-16T02:29:41;2.09;62.50
69324;DHT22;56470;47.350;8.718;2024-01-16T02:32:07;2.09;62.54
69324;DHT22;56470;47.350;8.718;2024-01-16T02:34:33;2.09;62.35
69324;DHT22;56470;47.350;8.718;2024-01-16T02:36:58;2.06;62.64
69324;DHT22;56470;47.350;8.718;2024-01-16T02:39:23;2.03;62.49
69324;DHT22;56470;47.350;8.718;2024-01-16T02:41:49;1.98;62.12
69324;DHT22;56470;47.350;8.718;2024-01-16T02:44:14;1.95;61.99
69324;DHT22;56470;47.350;8.718;2024-01-16T02:46:39;1.95;62.84
69324;DHT22;56470;47.350;8.718;2024-01-16T02:49:05;1.89;62.68
69324;DHT22;56470;47.350;8.718;2024-01-16T02:51:31;1.86;62.43
69324;DHT22;56470;47.350;8.718;2024-01-16T02:53:56;1.83;62.02
69324;DHT22;56470;47.350;8.718;2024-01-16T02:56:22;1.82;62.59
69324;DHT22;56470;47.350;8.718;2024-01-16T02:58:47;1.85;62.74
69324;DHT22;56470;47.350;8.718;2024-01-16T03:01:14;1.83;62.74
69324;DHT22;56470;47.350;8.718;2024-01-16T03:03:39;1.83;62.56
69324;DHT22;56470;47.350;8.718;2024-01-16T03:06:05;1.85;62.55
69324;DHT22;56470;47.350;8.718;2024-01-16T03:08:30;1.78;62.20
69324;DHT22;56470;47.350;8.718;2024-01-16T03:10:55;1.76;62.47
69324;DHT22;56470;47.350;8.718;2024-01-16T03:13:21;1.76;62.71
69324;DHT22;56470;47.350;8.718;2024-01-16T03:15:46;1.78;62.45
69324;DHT22;56470;47.350;8.718;2024-01-16T03:18:11;1.76;62.81
69324;DHT22;56470;47.350;8.718;2024-01-16T03:20:36;1.75;62.76
69324;DHT22;56470;47.350;8.718;2024-01-16T03:23:02;1.78;62.87
69324;DHT22;56470;47.350;8.718;2024-01-16T03:25:29;1.78;62.61
69324;DHT22;56470;47.350;8.718;2024-01-16T03:27:54;1.76;62.81
69324;DHT22;56470;47.350;8.718;2024-01-16T03:30:20;1.81;62.83
69324;DHT22;56470;47.350;8.718;2024-01-16T03:32:45;1.78;62.71
69324;DHT22;56470;47.350;8.718;2024-01-16T03:35:10;1.75;62.64
69324;DHT22;56470;47.350;8.718;2024-01-16T03:37:37;1.71;63.07
69324;DHT22;56470;47.350;8.718;2024-01-16T03:40:03;1.74;63.45
69324;DHT22;56470;47.350;8.718;2024-01-16T03:42:28;1.69;63.09
69324;DHT22;56470;47.350;8.718;2024-01-16T03:44:53;1.66;63.29
69324;DHT22;56470;47.350;8.718;2024-01-16T03:47:19;1.68;63.39
69324;DHT22;56470;47.350;8.718;2024-01-16T03:49:44;1.66;63.33
69324;DHT22;56470;47.350;8.718;2024-01-16T03:52:10;1.65;63.30
69324;DHT22;56470;47.350;8.718;2024-01-16T03:54:35;1.69;63.75
69324;DHT22;56470;47.350;8.718;2024-01-16T03:57:00;1.69;63.64
69324;DHT22;56470;47.350;8.718;2024-01-16T03:59:26;1.72;63.79
69324;DHT22;56470;47.350;8.718;2024-01-16T04:01:51;1.74;63.84
69324;DHT22;56470;47.350;8.718;2024-01-16T04:04:18;1.75;63.78
69324;DHT22;56470;47.350;8.718;2024-01-16T04:06:43;1.72;63.58
69324;DHT22;56470;47.350;8.718;2024-01-16T04:09:08;1.72;63.81
69324;DHT22;56470;47.350;8.718;2024-01-16T04:11:35;1.71;63.70
69324;DHT22;56470;47.350;8.718;2024-01-16T04:14:00;1.66;63.64
69324;DHT22;56470;47.350;8.718;2024-01-16T04:16:25;1.69;63.74
69324;DHT22;56470;47.350;8.718;2024-01-16T04:18:51;1.68;63.68
69324;DHT22;56470;47.350;8.718;2024-01-16T04:21:16;1.64;63.73
69324;DHT22;56470;47.350;8.718;2024-01-16T04:23:42;1.61;63.85
69324;DHT22;56470;47.350;8.718;2024-01-16T04:26:07;1.62;63.92
69324;DHT22;56470;47.350;8.718;2024-01-16T04:28:33;1.65;64.01
69324;DHT22;56470;47.350;8.718;2024-01-16T04:30:58;1.59;63.85
69324;DHT22;56470;47.350;8.718;2024-01-16T04:33:23;1.59;64.00
69324;DHT22;56470;47.350;8.718;2024-01-16T04:35:49;1.58;64.18
69324;DHT22;56470;47.350;8.718;2024-01-16T04:38:14;1.62;64.29
69324;DHT22;56470;47.350;8.718;2024-01-16T04:40:39;1.69;64.30
69324;DHT22;56470;47.350;8.718;2024-01-16T04:43:05;1.71;64.13
69324;DHT22;56470;47.350;8.718;2024-01-16T04:45:30;1.68;64.08
69324;DHT22;56470;47.350;8.718;2024-01-16T04:47:55;1.71;64.28
69324;DHT22;56470;47.350;8.718;2024-01-16T04:50:21;1.68;64.24
69324;DHT22;56470;47.350;8.718;2024-01-16T04:52:46;1.66;64.29
69324;DHT22;56470;47.350;8.718;2024-01-16T04:55:12;1.65;64.34
69324;DHT22;56470;47.350;8.718;2024-01-16T04:57:37;1.61;64.49
69324;DHT22;56470;47.350;8.718;2024-01-16T05:00:03;1.62;64.51
69324;DHT22;56470;47.350;8.718;2024-01-16T05:02:33;1.57;64.62
69324;DHT22;56470;47.350;8.718;2024-01-16T05:04:59;1.51;64.77
69324;DHT22;56470;47.350;8.718;2024-01-16T05:07:24;1.48;64.89
69324;DHT22;56470;47.350;8.718;2024-01-16T05:09:50;1.52;64.98
69324;DHT22;56470;47.350;8.718;2024-01-16T05:12:15;1.58;64.98
69324;DHT22;56470;47.350;8.718;2024-01-16T05:14:40;1.47;65.05
69324;DHT22;56470;47.350;8.718;2024-01-16T05:17:05;1.43;65.19
69324;DHT22;56470;47.350;8.718;2024-01-16T05:19:31;1.48;65.26
69324;DHT22;56470;47.350;8.718;2024-01-16T05:21:56;1.48;65.30
69324;DHT22;56470;47.350;8.718;2024-01-16T05:24:22;1.48;65.24
69324;DHT22;56470;47.350;8.718;2024-01-16T05:26:47;1.47;65.36
69324;DHT22;56470;47.350;8.718;2024-01-16T05:29:12;1.46;65.43
69324;DHT22;56470;47.350;8.718;2024-01-16T05:31:41;1.48;65.38
69324;DHT22;56470;47.350;8.718;2024-01-16T05:34:07;1.54;65.48
69324;DHT22;56470;47.350;8.718;2024-01-16T05:36:32;1.50;65.37
69324;DHT22;56470;47.350;8.718;2024-01-16T05:38:58;1.50;65.23
69324;DHT22;56470;47.350;8.718;2024-01-16T05:41:23;1.47;65.36
69324;DHT22;56470;47.350;8.718;2024-01-16T05:43:48;1.50;65.59
69324;DHT22;56470;47.350;8.718;2024-01-16T05:46:14;1.50;65.61
69324;DHT22;56470;47.350;8.718;2024-01-16T05:48:39;1.54;65.63
69324;DHT22;56470;47.350;8.718;2024-01-16T05:51:04;1.52;65.53
69324;DHT22;56470;47.350;8.718;2024-01-16T05:53:30;1.55;65.62
69324;DHT22;56470;47.350;8.718;2024-01-16T05:55:55;1.52;65.67
69324;DHT22;56470;47.350;8.718;2024-01-16T05:58:24;1.52;65.76
69324;DHT22;56470;47.350;8.718;2024-01-16T06:00:50;1.55;65.83
69324;DHT22;56470;47.350;8.718;2024-01-16T06:03:15;1.57;65.85
69324;DHT22;56470;47.350;8.718;2024-01-16T06:05:40;1.54;65.77
69324;DHT22;56470;47.350;8.718;2024-01-16T06:08:05;1.46;65.72
69324;DHT22;56470;47.350;8.718;2024-01-16T06:10:31;1.47;65.85
69324;DHT22;56470;47.350;8.718;2024-01-16T06:12:56;1.51;66.00
69324;DHT22;56470;47.350;8.718;2024-01-16T06:15:22;1.52;65.99
69324;DHT22;56470;47.350;8.718;2024-01-16T06:17:48;1.50;65.96
69324;DHT22;56470;47.350;8.718;2024-01-16T06:20:13;1.46;66.04
69324;DHT22;56470;47.350;8.718;2024-01-16T06:22:39;1.44;66.26
69324;DHT22;56470;47.350;8.718;2024-01-16T06:25:04;1.43;66.36
69324;DHT22;56470;47.350;8.718;2024-01-16T06:27:29;1.46;66.39
69324;DHT22;56470;47.350;8.718;2024-01-16T06:29:55;1.50;66.36
69324;DHT22;56470;47.350;8.718;2024-01-16T06:32:20;1.47;66.26
69324;DHT22;56470;47.350;8.718;2024-01-16T06:34:45;1.50;66.30
69324;DHT22;56470;47.350;8.718;2024-01-16T06:37:11;1.50;66.18
69324;DHT22;56470;47.350;8.718;2024-01-16T06:39:36;1.47;66.31
69324;DHT22;56470;47.350;8.718;2024-01-16T06:42:03;1.46;66.42
69324;DHT22;56470;47.350;8.718;2024-01-16T06:44:29;1.50;66.37
69324;DHT22;56470;47.350;8.718;2024-01-16T06:46:55;1.51;66.50
69324;DHT22;56470;47.350;8.718;2024-01-16T06:49:20;1.54;66.24
69324;DHT22;56470;47.350;8.718;2024-01-16T06:51:45;1.58;66.12
69324;DHT22;56470;47.350;8.718;2024-01-16T06:54:10;1.62;66.13
69324;DHT22;56470;47.350;8.718;2024-01-16T06:56:36;1.62;66.06
69324;DHT22;56470;47.350;8.718;2024-01-16T06:59:01;1.62;66.10
69324;DHT22;56470;47.350;8.718;2024-01-16T07:01:26;1.62;66.00
69324;DHT22;56470;47.350;8.718;2024-01-16T07:03:52;1.59;66.01
69324;DHT22;56470;47.350;8.718;2024-01-16T07:06:17;1.65;66.07
69324;DHT22;56470;47.350;8.718;2024-01-16T07:08:43;1.66;65.69
69324;DHT22;56470;47.350;8.718;2024-01-16T07:11:08;1.66;65.96
69324;DHT22;56470;47.350;8.718;2024-01-16T07:13:38;1.66;66.04
69324;DHT22;56470;47.350;8.718;2024-01-16T07:16:03;1.69;65.91
69324;DHT22;56470;47.350;8.718;2024-01-16T07:18:29;1.61;65.92
69324;DHT22;56470;47.350;8.718;2024-01-16T07:20:54;1.61;65.98
69324;DHT22;56470;47.350;8.718;2024-01-16T07:23:20;1.54;65.98
69324;DHT22;56470;47.350;8.718;2024-01-16T07:25:45;1.54;66.20
69324;DHT22;56470;47.350;8.718;2024-01-16T07:28:11;1.59;66.20
69324;DHT22;56470;47.350;8.718;2024-01-16T07:30:38;1.65;66.18
69324;DHT22;56470;47.350;8.718;2024-01-16T07:33:04;1.69;66.24
69324;DHT22;56470;47.350;8.718;2024-01-16T07:35:30;1.75;65.85
69324;DHT22;56470;47.350;8.718;2024-01-16T07:37:55;1.81;66.16
69324;DHT22;56470;47.350;8.718;2024-01-16T07:40:20;1.92;66.05
69324;DHT22;56470;47.350;8.718;2024-01-16T07:42:46;1.99;65.77
69324;DHT22;56470;47.350;8.718;2024-01-16T07:45:11;2.02;65.53
69324;DHT22;56470;47.350;8.718;2024-01-16T07:47:36;2.00;65.30
69324;DHT22;56470;47.350;8.718;2024-01-16T07:50:02;1.99;65.26
69324;DHT22;56470;47.350;8.718;2024-01-16T07:52:28;2.00;65.74
69324;DHT22;56470;47.350;8.718;2024-01-16T07:54:54;2.09;65.57
69324;DHT22;56470;47.350;8.718;2024-01-16T07:57:19;2.13;65.28
69324;DHT22;56470;47.350;8.718;2024-01-16T07:59:44;2.21;65.46
69324;DHT22;56470;47.350;8.718;2024-01-16T08:02:10;2.27;65.11
69324;DHT22;56470;47.350;8.718;2024-01-16T08:04:35;2.40;65.48
69324;DHT22;56470;47.350;8.718;2024-01-16T08:07:01;2.55;65.39
69324;DHT22;56470;47.350;8.718;2024-01-16T08:09:27;2.69;64.64
69324;DHT22;56470;47.350;8.718;2024-01-16T08:11:52;2.92;64.71
69324;DHT22;56470;47.350;8.718;2024-01-16T08:14:17;3.10;64.45
69324;DHT22;56470;47.350;8.718;2024-01-16T08:16:43;3.24;63.91
69324;DHT22;56470;47.350;8.718;2024-01-16T08:19:08;3.37;63.99
69324;DHT22;56470;47.350;8.718;2024-01-16T08:21:34;3.54;63.74
69324;DHT22;56470;47.350;8.718;2024-01-16T08:23:59;3.69;63.54
69324;DHT22;56470;47.350;8.718;2024-01-16T08:26:25;3.89;62.55
69324;DHT22;56470;47.350;8.718;2024-01-16T08:28:51;4.03;62.87
69324;DHT22;56470;47.350;8.718;2024-01-16T08:31:17;4.21;62.81
69324;DHT22;56470;47.350;8.718;2024-01-16T08:33:43;4.34;60.89
69324;DHT22;56470;47.350;8.718;2024-01-16T08:36:09;4.27;61.12
69324;DHT22;56470;47.350;8.718;2024-01-16T08:38:34;4.33;61.84
69324;DHT22;56470;47.350;8.718;2024-01-16T08:40:59;4.41;61.36
69324;DHT22;56470;47.350;8.718;2024-01-16T08:43:25;4.56;61.69
69324;DHT22;56470;47.350;8.718;2024-01-16T08:45:50;4.62;60.53
69324;DHT22;56470;47.350;8.718;2024-01-16T08:48:15;4.61;60.99
69324;DHT22;56470;47.350;8.718;2024-01-16T08:50:42;4.73;61.01
69324;DHT22;56470;47.350;8.718;2024-01-16T08:53:07;4.83;60.67
69324;DHT22;56470;47.350;8.718;2024-01-16T08:55:32;4.94;60.62
69324;DHT22;56470;47.350;8.718;2024-01-16T08:57:58;4.97;59.74
69324;DHT22;56470;47.350;8.718;2024-01-16T09:00:23;4.94;60.20
69324;DHT22;56470;47.350;8.718;2024-01-16T09:02:48;4.84;59.79
69324;DHT22;56470;47.350;8.718;2024-01-16T09:05:14;4.79;59.17
69324;DHT22;56470;47.350;8.718;2024-01-16T09:07:40;4.65;59.19
69324;DHT22;56470;47.350;8.718;2024-01-16T09:10:06;4.63;60.40
69324;DHT22;56470;47.350;8.718;2024-01-16T09:12:32;4.75;60.39
69324;DHT22;56470;47.350;8.718;2024-01-16T09:14:57;4.75;58.59
69324;DHT22;56470;47.350;8.718;2024-01-16T09:17:23;4.89;59.70
69324;DHT22;56470;47.350;8.718;2024-01-16T09:19:50;4.97;59.70
69324;DHT22;56470;47.350;8.718;2024-01-16T09:22:16;4.98;58.25
69324;DHT22;56470;47.350;8.718;2024-01-16T09:24:41;5.04;58.00
69324;DHT22;56470;47.350;8.718;2024-01-16T09:27:06;5.07;58.77
69324;DHT22;56470;47.350;8.718;2024-01-16T09:29:32;5.01;57.74
69324;DHT22;56470;47.350;8.718;2024-01-16T09:31:57;5.08;59.38
69324;DHT22;56470;47.350;8.718;2024-01-16T09:34:23;5.27;59.39
69324;DHT22;56470;47.350;8.718;2024-01-16T09:36:48;5.39;59.15
69324;DHT22;56470;47.350;8.718;2024-01-16T09:39:14;5.42;57.91
69324;DHT22;56470;47.350;8.718;2024-01-16T09:41:39;5.42;58.75
69324;DHT22;56470;47.350;8.718;2024-01-16T09:44:05;5.55;57.31
69324;DHT22;56470;47.350;8.718;2024-01-16T09:46:32;5.63;57.81
69324;DHT22;56470;47.350;8.718;2024-01-16T09:49:00;5.63;57.86
69324;DHT22;56470;47.350;8.718;2024-01-16T09:51:27;5.55;58.22
69324;DHT22;56470;47.350;8.718;2024-01-16T09:53:53;5.62;57.78
69324;DHT22;56470;47.350;8.718;2024-01-16T09:56:23;5.62;58.14
69324;DHT22;56470;47.350;8.718;2024-01-16T09:58:58;5.56;57.81
69324;DHT22;56470;47.350;8.718;2024-01-16T10:01:27;5.56;58.20
69324;DHT22;56470;47.350;8.718;2024-01-16T10:03:53;5.56;58.11
69324;DHT22;56470;47.350;8.718;2024-01-16T10:06:19;5.43;57.40
69324;DHT22;56470;47.350;8.718;2024-01-16T10:08:45;5.27;57.21
69324;DHT22;56470;47.350;8.718;2024-01-16T10:11:11;5.25;57.99
69324;DHT22;56470;47.350;8.718;2024-01-16T10:13:36;5.17;57.78
69324;DHT22;56470;47.350;8.718;2024-01-16T10:16:02;5.06;57.89
69324;DHT22;56470;47.350;8.718;2024-01-16T10:18:29;4.79;58.26
69324;DHT22;56470;47.350;8.718;2024-01-16T10:20:56;4.69;58.47
69324;DHT22;56470;47.350;8.718;2024-01-16T10:23:32;4.62;59.36
69324;DHT22;56470;47.350;8.718;2024-01-16T10:28:32;4.58;59.36
69324;DHT22;56470;47.350;8.718;2024-01-16T10:31:06;4.52;59.62
69324;DHT22;56470;47.350;8.718;2024-01-16T10:33:32;4.46;59.17
69324;DHT22;56470;47.350;8.718;2024-01-16T10:36:16;4.42;59.71
69324;DHT22;56470;47.350;8.718;2024-01-16T10:38:44;4.46;59.40
69324;DHT22;56470;47.350;8.718;2024-01-16T10:41:15;4.45;60.14
69324;DHT22;56470;47.350;8.718;2024-01-16T10:43:41;4.46;60.09
69324;DHT22;56470;47.350;8.718;2024-01-16T10:46:15;4.45;59.98
69324;DHT22;56470;47.350;8.718;2024-01-16T10:48:43;4.40;60.06
69324;DHT22;56470;47.350;8.718;2024-01-16T10:51:14;4.38;60.15
69324;DHT22;56470;47.350;8.718;2024-01-16T10:53:44;4.28;59.86
69324;DHT22;56470;47.350;8.718;2024-01-16T10:56:10;4.18;59.84
69324;DHT22;56470;47.350;8.718;2024-01-16T10:58:41;4.21;60.13
69324;DHT22;56470;47.350;8.718;2024-01-16T11:01:10;4.25;60.40
69324;DHT22;56470;47.350;8.718;2024-01-16T11:03:41;4.27;60.42
69324;DHT22;56470;47.350;8.718;2024-01-16T11:06:08;4.25;59.87
69324;DHT22;56470;47.350;8.718;2024-01-16T11:08:38;4.24;60.39
69324;DHT22;56470;47.350;8.718;2024-01-16T11:11:04;4.22;59.65
69324;DHT22;56470;47.350;8.718;2024-01-16T11:13:33;4.14;59.82
69324;DHT22;56470;47.350;8.718;2024-01-16T11:16:00;4.13;60.59
69324;DHT22;56470;47.350;8.718;2024-01-16T11:18:30;4.13;60.03
69324;DHT22;56470;47.350;8.718;2024-01-16T11:20:56;4.11;60.18
69324;DHT22;56470;47.350;8.718;2024-01-16T11:23:22;4.13;59.65
69324;DHT22;56470;47.350;8.718;2024-01-16T11:25:48;4.06;60.00
69324;DHT22;56470;47.350;8.718;2024-01-16T11:28:14;4.08;60.03
69324;DHT22;56470;47.350;8.718;2024-01-16T11:30:41;4.06;60.27
69324;DHT22;56470;47.350;8.718;2024-01-16T11:36:00;4.24;60.68
69324;DHT22;56470;47.350;8.718;2024-01-16T11:38:26;4.31;60.07
69324;DHT22;56470;47.350;8.718;2024-01-16T11:40:53;4.28;60.23
69324;DHT22;56470;47.350;8.718;2024-01-16T11:46:03;4.06;60.43
69324;DHT22;56470;47.350;8.718;2024-01-16T11:48:29;4.10;60.54
69324;DHT22;56470;47.350;8.718;2024-01-16T11:50:54;4.10;61.02
69324;DHT22;56470;47.350;8.718;2024-01-16T11:53:46;4.16;60.45
69324;DHT22;56470;47.350;8.718;2024-01-16T12:01:43;4.16;61.13
69324;DHT22;56470;47.350;8.718;2024-01-16T12:04:09;4.17;60.74
69324;DHT22;56470;47.350;8.718;2024-01-16T12:06:35;4.14;60.79
69324;DHT22;56470;47.350;8.718;2024-01-16T12:09:14;4.14;60.87
69324;DHT22;56470;47.350;8.718;2024-01-16T12:11:40;4.13;60.88
69324;DHT22;56470;47.350;8.718;2024-01-16T12:14:08;4.16;60.92
69324;DHT22;56470;47.350;8.718;2024-01-16T12:16:33;4.10;61.02
69324;DHT22;56470;47.350;8.718;2024-01-16T12:19:13;4.08;60.92
69324;DHT22;56470;47.350;8.718;2024-01-16T12:21:45;4.07;61.10
69324;DHT22;56470;47.350;8.718;2024-01-16T12:24:11;4.03;61.20
69324;DHT22;56470;47.350;8.718;2024-01-16T12:26:37;4.08;61.42
69324;DHT22;56470;47.350;8.718;2024-01-16T12:29:03;4.14;61.61
69324;DHT22;56470;47.350;8.718;2024-01-16T12:31:29;4.16;61.38
69324;DHT22;56470;47.350;8.718;2024-01-16T12:34:07;4.16;61.12
69324;DHT22;56470;47.350;8.718;2024-01-16T12:36:33;4.07;61.25
69324;DHT22;56470;47.350;8.718;2024-01-16T12:38:59;3.99;61.40
69324;DHT22;56470;47.350;8.718;2024-01-16T12:41:26;3.96;61.43
69324;DHT22;56470;47.350;8.718;2024-01-16T12:43:52;3.91;61.49
69324;DHT22;56470;47.350;8.718;2024-01-16T12:46:18;3.97;61.69
69324;DHT22;56470;47.350;8.718;2024-01-16T12:48:44;3.93;61.35
69324;DHT22;56470;47.350;8.718;2024-01-16T12:51:10;3.96;61.69
69324;DHT22;56470;47.350;8.718;2024-01-16T12:53:37;4.00;61.72
69324;DHT22;56470;47.350;8.718;2024-01-16T12:56:05;4.07;61.88
69324;DHT22;56470;47.350;8.718;2024-01-16T12:58:34;4.18;61.91
69324;DHT22;56470;47.350;8.718;2024-01-16T13:03:49;4.28;61.48
69324;DHT22;56470;47.350;8.718;2024-01-16T13:06:20;4.27;61.41
69324;DHT22;56470;47.350;8.718;2024-01-16T13:08:47;4.24;61.27
69324;DHT22;56470;47.350;8.718;2024-01-16T13:11:13;4.20;61.40
69324;DHT22;56470;47.350;8.718;2024-01-16T13:13:44;4.10;61.38
69324;DHT22;56470;47.350;8.718;2024-01-16T13:16:10;4.03;61.78
69324;DHT22;56470;47.350;8.718;2024-01-16T13:18:36;4.00;61.77
69324;DHT22;56470;47.350;8.718;2024-01-16T13:21:02;3.99;61.62
69324;DHT22;56470;47.350;8.718;2024-01-16T13:23:28;3.93;61.92
69324;DHT22;56470;47.350;8.718;2024-01-16T13:25:55;4.01;61.99
69324;DHT22;56470;47.350;8.718;2024-01-16T13:28:28;4.04;62.04
69324;DHT22;56470;47.350;8.718;2024-01-16T13:30:57;4.14;62.24
69324;DHT22;56470;47.350;8.718;2024-01-16T13:33:24;4.03;61.83
69324;DHT22;56470;47.350;8.718;2024-01-16T13:35:53;4.10;62.17
69324;DHT22;56470;47.350;8.718;2024-01-16T13:38:20;4.11;61.78
69324;DHT22;56470;47.350;8.718;2024-01-16T13:40:45;4.14;61.88
69324;DHT22;56470;47.350;8.718;2024-01-16T13:43:11;4.13;61.90
69324;DHT22;56470;47.350;8.718;2024-01-16T13:45:37;4.16;61.99
69324;DHT22;56470;47.350;8.718;2024-01-16T13:48:04;4.11;61.90
69324;DHT22;56470;47.350;8.718;2024-01-16T13:50:30;4.14;62.00
69324;DHT22;56470;47.350;8.718;2024-01-16T13:52:56;4.16;62.15
69324;DHT22;56470;47.350;8.718;2024-01-16T13:55:22;4.21;61.70
69324;DHT22;56470;47.350;8.718;2024-01-16T13:57:47;4.25;61.92
69324;DHT22;56470;47.350;8.718;2024-01-16T14:00:14;4.30;61.69
69324;DHT22;56470;47.350;8.718;2024-01-16T14:02:45;4.28;61.76
69324;DHT22;56470;47.350;8.718;2024-01-16T14:05:11;4.37;61.83
69324;DHT22;56470;47.350;8.718;2024-01-16T14:07:39;4.41;61.42
69324;DHT22;56470;47.350;8.718;2024-01-16T14:10:07;4.45;61.44
69324;DHT22;56470;47.350;8.718;2024-01-16T14:12:34;4.46;61.45
69324;DHT22;56470;47.350;8.718;2024-01-16T14:15:00;4.49;61.28
69324;DHT22;56470;47.350;8.718;2024-01-16T14:17:28;4.56;61.43
69324;DHT22;56470;47.350;8.718;2024-01-16T14:19:53;4.58;61.29
69324;DHT22;56470;47.350;8.718;2024-01-16T14:22:18;4.58;60.76
69324;DHT22;56470;47.350;8.718;2024-01-16T14:24:44;4.53;60.58
69324;DHT22;56470;47.350;8.718;2024-01-16T14:27:12;4.51;61.13
69324;DHT22;56470;47.350;8.718;2024-01-16T14:29:38;4.53;60.88
69324;DHT22;56470;47.350;8.718;2024-01-16T14:32:05;4.37;60.94
69324;DHT22;56470;47.350;8.718;2024-01-16T14:34:30;4.41;61.43
69324;DHT22;56470;47.350;8.718;2024-01-16T14:36:56;4.41;60.93
69324;DHT22;56470;47.350;8.718;2024-01-16T14:39:21;4.35;60.64
69324;DHT22;56470;47.350;8.718;2024-01-16T14:41:50;4.34;61.08
69324;DHT22;56470;47.350;8.718;2024-01-16T14:44:16;4.41;61.43
69324;DHT22;56470;47.350;8.718;2024-01-16T14:46:42;4.46;61.14
69324;DHT22;56470;47.350;8.718;2024-01-16T14:49:10;4.38;61.06
69324;DHT22;56470;47.350;8.718;2024-01-16T14:51:36;4.40;61.14
69324;DHT22;56470;47.350;8.718;2024-01-16T14:54:03;4.40;61.27
69324;DHT22;56470;47.350;8.718;2024-01-16T14:56:30;4.42;61.25
69324;DHT22;56470;47.350;8.718;2024-01-16T14:58:55;4.34;61.08
69324;DHT22;56470;47.350;8.718;2024-01-16T15:01:21;4.18;61.02
69324;DHT22;56470;47.350;8.718;2024-01-16T15:03:46;4.06;60.87
69324;DHT22;56470;47.350;8.718;2024-01-16T15:06:11;3.97;61.37
69324;DHT22;56470;47.350;8.718;2024-01-16T15:08:38;3.96;61.50
69324;DHT22;56470;47.350;8.718;2024-01-16T15:11:03;3.93;61.50
69324;DHT22;56470;47.350;8.718;2024-01-16T15:13:30;3.96;61.52
69324;DHT22;56470;47.350;8.718;2024-01-16T15:15:55;4.03;61.80
69324;DHT22;56470;47.350;8.718;2024-01-16T15:18:21;4.00;61.65
69324;DHT22;56470;47.350;8.718;2024-01-16T15:20:47;3.80;61.83
69324;DHT22;56470;47.350;8.718;2024-01-16T15:23:12;3.73;62.35
69324;DHT22;56470;47.350;8.718;2024-01-16T15:25:37;3.78;62.54
69324;DHT22;56470;47.350;8.718;2024-01-16T15:28:03;3.71;62.46
69324;DHT22;56470;47.350;8.718;2024-01-16T15:30:28;3.75;62.52
69324;DHT22;56470;47.350;8.718;2024-01-16T15:32:58;3.68;62.56
69324;DHT22;56470;47.350;8.718;2024-01-16T15:35:23;3.51;62.69
69324;DHT22;56470;47.350;8.718;2024-01-16T15:37:48;3.52;62.91
69324;DHT22;56470;47.350;8.718;2024-01-16T15:40:14;3.56;62.91
69324;DHT22;56470;47.350;8.718;2024-01-16T15:42:40;3.45;62.92
69324;DHT22;56470;47.350;8.718;2024-01-16T15:45:06;3.45;63.10
69324;DHT22;56470;47.350;8.718;2024-01-16T15:47:32;3.42;63.16
69324;DHT22;56470;47.350;8.718;2024-01-16T15:49:58;3.42;63.07
69324;DHT22;56470;47.350;8.718;2024-01-16T15:52:23;3.39;63.22
69324;DHT22;56470;47.350;8.718;2024-01-16T15:54:49;3.45;63.23
69324;DHT22;56470;47.350;8.718;2024-01-16T15:57:14;3.41;63.24